createdAt,value
2018-05-15T00:00:18.236Z,8.20
2018-05-15T00:01:18.146Z,9.90
2018-05-15T00:02:18.041Z,7.90
2018-05-15T00:03:17.949Z,6.80
2018-05-15T00:04:17.849Z,9.60
2018-05-15T00:05:17.757Z,10.10
2018-05-15T00:06:17.652Z,9.80
2018-05-15T00:07:17.561Z,10.00
2018-05-15T00:08:17.462Z,8.80
2018-05-15T00:09:17.368Z,7.50
2018-05-15T00:10:17.265Z,6.30
2018-05-15T00:11:17.173Z,11.90
2018-05-15T00:12:17.070Z,7.10
2018-05-15T00:13:16.979Z,10.40
2018-05-15T00:14:16.876Z,7.90
2018-05-15T00:15:16.785Z,8.20
2018-05-15T00:16:16.682Z,6.90
2018-05-15T00:17:16.591Z,7.20
2018-05-15T00:18:16.487Z,9.00
2018-05-15T00:19:16.396Z,8.20
2018-05-15T00:20:16.292Z,9.20
2018-05-15T00:21:16.203Z,7.10
2018-05-15T00:22:16.099Z,8.00
2018-05-15T00:23:16.010Z,7.30
2018-05-15T00:24:15.905Z,10.80
2018-05-15T00:25:15.814Z,7.30
2018-05-15T00:26:15.711Z,9.10
2018-05-15T00:27:15.620Z,7.10
2018-05-15T00:28:15.517Z,8.00
2018-05-15T00:29:15.427Z,8.20
2018-05-15T00:30:15.323Z,8.30
2018-05-15T00:31:15.235Z,8.70
2018-05-15T00:32:15.128Z,7.80
2018-05-15T00:33:15.026Z,8.30
2018-05-15T00:34:14.939Z,7.90
2018-05-15T00:35:14.835Z,8.00
2018-05-15T00:36:14.740Z,7.30
2018-05-15T00:37:14.636Z,8.10
2018-05-15T00:38:14.547Z,12.00
2018-05-15T00:39:14.443Z,10.50
2018-05-15T00:40:14.353Z,9.10
2018-05-15T00:41:14.248Z,7.50
2018-05-15T00:42:14.159Z,9.20
2018-05-15T00:43:14.056Z,8.40
2018-05-15T00:44:13.977Z,7.40
2018-05-15T00:45:13.860Z,9.00
2018-05-15T00:46:13.761Z,9.00
2018-05-15T00:47:13.666Z,7.70
2018-05-15T00:48:13.564Z,8.60
2018-05-15T00:49:13.471Z,9.60
2018-05-15T00:50:13.370Z,7.40
2018-05-15T00:51:13.277Z,8.00
2018-05-15T00:52:13.175Z,7.40
2018-05-15T00:53:13.083Z,7.60
2018-05-15T00:54:12.979Z,7.70
2018-05-15T00:55:12.889Z,10.00
2018-05-15T00:56:12.786Z,9.10
2018-05-15T00:57:12.682Z,7.70
2018-05-15T00:58:12.594Z,7.50
2018-05-15T00:59:12.488Z,11.00
2018-05-15T01:00:12.401Z,8.40
2018-05-15T01:01:12.294Z,9.70
2018-05-15T01:02:12.202Z,7.30
2018-05-15T01:03:12.099Z,8.40
2018-05-15T01:04:12.010Z,8.70
2018-05-15T01:05:11.910Z,8.60
2018-05-15T01:06:11.803Z,8.50
2018-05-15T01:07:11.711Z,8.50
2018-05-15T01:08:11.608Z,8.50
2018-05-15T01:09:11.519Z,10.60
2018-05-15T01:10:11.415Z,10.00
2018-05-15T01:11:11.323Z,7.50
2018-05-15T01:12:11.221Z,8.10
2018-05-15T01:13:11.130Z,9.30
2018-05-15T01:14:11.031Z,7.30
2018-05-15T01:15:10.926Z,9.60
2018-05-15T01:16:10.831Z,7.70
2018-05-15T01:17:10.727Z,9.30
2018-05-15T01:18:10.639Z,8.50
2018-05-15T01:19:10.535Z,9.60
2018-05-15T01:20:10.443Z,8.70
2018-05-15T01:21:10.341Z,7.80
2018-05-15T01:22:10.238Z,11.20
2018-05-15T01:23:10.151Z,8.00
2018-05-15T01:24:10.044Z,7.30
2018-05-15T01:25:09.952Z,10.70
2018-05-15T01:26:09.861Z,12.00
2018-05-15T01:27:09.758Z,9.10
2018-05-15T01:28:09.655Z,11.50
2018-05-15T01:29:09.564Z,12.20
2018-05-15T01:30:09.461Z,11.50
2018-05-15T01:31:09.359Z,10.10
2018-05-15T01:32:09.268Z,10.70
2018-05-15T01:33:09.164Z,9.90
2018-05-15T01:34:09.072Z,8.30
2018-05-15T01:35:08.971Z,8.70
2018-05-15T01:36:08.879Z,9.80
2018-05-15T01:37:08.775Z,8.70
2018-05-15T01:38:08.676Z,8.10
2018-05-15T01:39:08.581Z,7.20
2018-05-15T01:40:08.801Z,9.20
2018-05-15T01:41:08.388Z,10.10
2018-05-15T01:42:08.287Z,12.20
2018-05-15T01:43:08.192Z,11.00
2018-05-15T01:44:08.090Z,10.60
2018-05-15T01:45:07.988Z,8.30
2018-05-15T01:46:07.897Z,8.90
2018-05-15T01:47:07.796Z,9.20
2018-05-15T01:48:07.702Z,8.10
2018-05-15T01:49:07.598Z,9.60
2018-05-15T01:50:07.509Z,9.10
2018-05-15T01:51:07.405Z,7.40
2018-05-15T01:52:07.313Z,12.40
2018-05-15T01:53:07.212Z,12.40
2018-05-15T01:54:07.106Z,8.50
2018-05-15T01:55:07.017Z,11.40
2018-05-15T01:56:06.916Z,10.50
2018-05-15T01:57:06.820Z,7.80
2018-05-15T01:58:06.718Z,12.50
2018-05-15T01:59:06.628Z,10.50
2018-05-15T02:00:06.525Z,10.00
2018-05-15T02:01:06.421Z,10.00
2018-05-15T02:02:06.330Z,9.80
2018-05-15T02:03:06.227Z,9.10
2018-05-15T02:04:06.136Z,8.30
2018-05-15T02:05:06.033Z,10.30
2018-05-15T02:06:05.941Z,9.80
2018-05-15T02:07:05.838Z,7.30
2018-05-15T02:08:05.736Z,8.90
2018-05-15T02:09:05.645Z,12.80
2018-05-15T02:10:05.541Z,15.30
2018-05-15T02:11:05.453Z,10.30
2018-05-15T02:12:05.347Z,8.90
2018-05-15T02:13:05.256Z,9.10
2018-05-15T02:14:05.154Z,8.90
2018-05-15T02:15:05.060Z,11.30
2018-05-15T02:16:04.958Z,7.90
2018-05-15T02:17:04.856Z,8.80
2018-05-15T02:18:04.768Z,9.80
2018-05-15T02:19:04.662Z,11.10
2018-05-15T02:20:04.572Z,7.70
2018-05-15T02:21:04.466Z,7.70
2018-05-15T02:22:04.365Z,7.90
2018-05-15T02:23:04.273Z,9.10
2018-05-15T02:24:04.170Z,8.40
2018-05-15T02:25:04.078Z,9.80
2018-05-15T02:26:03.976Z,9.30
2018-05-15T02:27:03.885Z,8.70
2018-05-15T02:28:03.788Z,9.90
2018-05-15T02:29:03.679Z,8.80
2018-05-15T02:30:03.592Z,8.30
2018-05-15T02:31:03.484Z,8.80
2018-05-15T02:32:03.394Z,9.50
2018-05-15T02:33:03.291Z,11.10
2018-05-15T02:34:03.199Z,10.30
2018-05-15T02:35:03.098Z,8.10
2018-05-15T02:36:03.006Z,11.00
2018-05-15T02:37:02.906Z,9.30
2018-05-15T02:38:02.799Z,9.40
2018-05-15T02:39:02.716Z,8.80
2018-05-15T02:40:02.611Z,9.40
2018-05-15T02:41:02.514Z,11.70
2018-05-15T02:42:02.411Z,10.80
2018-05-15T02:43:02.326Z,11.10
2018-05-15T02:44:02.216Z,8.90
2018-05-15T02:45:02.129Z,8.30
2018-05-15T02:46:02.023Z,8.50
2018-05-15T02:47:01.923Z,10.10
2018-05-15T02:48:01.874Z,9.30
2018-05-15T02:49:01.739Z,8.50
2018-05-15T02:50:01.634Z,8.60
2018-05-15T02:51:01.537Z,8.80
2018-05-15T02:52:01.439Z,9.70
2018-05-15T02:53:01.336Z,8.30
2018-05-15T02:54:01.242Z,9.70
2018-05-15T02:55:01.143Z,10.10
2018-05-15T02:56:01.048Z,11.10
2018-05-15T02:57:00.948Z,12.40
2018-05-15T02:58:00.845Z,9.20
2018-05-15T02:59:00.754Z,8.90
2018-05-15T03:00:00.951Z,8.50
2018-05-15T03:01:00.559Z,11.50
2018-05-15T03:02:00.469Z,10.90
2018-05-15T03:03:00.366Z,10.40
2018-05-15T03:04:00.263Z,8.10
2018-05-15T03:05:00.161Z,9.80
2018-05-15T03:06:00.070Z,9.30
2018-05-15T03:06:59.966Z,11.50
2018-05-15T03:07:59.874Z,10.00
2018-05-15T03:08:59.775Z,8.50
2018-05-15T03:09:59.683Z,8.10
2018-05-15T03:10:59.576Z,10.40
2018-05-15T03:11:59.474Z,10.00
2018-05-15T03:12:59.383Z,11.80
2018-05-15T03:13:59.282Z,9.40
2018-05-15T03:14:59.187Z,14.00
2018-05-15T03:15:59.085Z,10.70
2018-05-15T03:16:58.983Z,7.90
2018-05-15T03:17:58.898Z,8.30
2018-05-15T03:18:58.787Z,10.60
2018-05-15T03:19:58.697Z,8.70
2018-05-15T03:20:58.595Z,9.30
2018-05-15T03:21:58.504Z,8.20
2018-05-15T03:22:58.400Z,14.30
2018-05-15T03:23:58.321Z,10.20
2018-05-15T03:24:58.204Z,10.40
2018-05-15T03:25:58.101Z,12.60
2018-05-15T03:26:58.012Z,7.80
2018-05-15T03:27:57.908Z,10.20
2018-05-15T03:28:57.816Z,8.70
2018-05-15T03:29:57.717Z,8.50
2018-05-15T03:30:57.625Z,9.00
2018-05-15T03:31:57.520Z,10.80
2018-05-15T03:32:57.417Z,9.90
2018-05-15T03:33:57.326Z,10.40
2018-05-15T03:34:57.221Z,8.60
2018-05-15T03:35:57.132Z,8.60
2018-05-15T03:36:57.028Z,8.10
2018-05-15T03:37:56.925Z,11.70
2018-05-15T03:38:56.833Z,7.60
2018-05-15T03:39:56.731Z,9.70
2018-05-15T03:40:56.641Z,7.80
2018-05-15T03:41:56.537Z,8.10
2018-05-15T03:42:56.445Z,10.00
2018-05-15T03:43:56.343Z,8.70
2018-05-15T03:44:56.250Z,8.40
2018-05-15T03:45:56.148Z,8.80
2018-05-15T03:46:56.045Z,9.40
2018-05-15T03:47:55.953Z,11.20
2018-05-15T03:48:55.852Z,8.00
2018-05-15T03:49:55.760Z,9.90
2018-05-15T03:50:55.657Z,10.10
2018-05-15T03:51:55.564Z,7.60
2018-05-15T03:52:55.462Z,9.00
2018-05-15T03:53:55.359Z,8.90
2018-05-15T03:54:55.268Z,9.50
2018-05-15T03:55:55.164Z,9.90
2018-05-15T03:56:55.074Z,9.40
2018-05-15T03:57:54.969Z,8.20
2018-05-15T03:58:54.879Z,10.00
2018-05-15T03:59:54.776Z,10.50
2018-05-15T04:00:54.684Z,8.40
2018-05-15T04:01:54.581Z,9.00
2018-05-15T04:02:54.491Z,14.30
2018-05-15T04:03:54.393Z,8.80
2018-05-15T04:04:54.295Z,10.60
2018-05-15T04:05:54.207Z,9.10
2018-05-15T04:06:54.103Z,10.20
2018-05-15T04:07:54.000Z,12.20
2018-05-15T04:08:53.908Z,11.80
2018-05-15T04:09:53.805Z,8.20
2018-05-15T04:10:53.754Z,9.00
2018-05-15T04:11:53.613Z,11.60
2018-05-15T04:12:53.520Z,8.80
2018-05-15T04:13:53.417Z,10.00
2018-05-15T04:14:53.329Z,9.50
2018-05-15T04:15:53.223Z,12.30
2018-05-15T04:16:53.134Z,8.70
2018-05-15T04:17:53.030Z,8.40
2018-05-15T04:18:52.939Z,9.30
2018-05-15T04:19:52.836Z,11.70
2018-05-15T04:20:52.743Z,8.90
2018-05-15T04:21:52.641Z,9.50
2018-05-15T04:22:52.550Z,9.20
2018-05-15T04:23:52.447Z,11.20
2018-05-15T04:24:52.356Z,9.80
2018-05-15T04:25:52.252Z,10.40
2018-05-15T04:26:52.162Z,8.10
2018-05-15T04:27:52.071Z,10.60
2018-05-15T04:28:51.967Z,10.90
2018-05-15T04:29:51.878Z,11.10
2018-05-15T04:30:51.774Z,9.10
2018-05-15T04:31:51.685Z,12.40
2018-05-15T04:32:51.579Z,7.90
2018-05-15T04:33:51.489Z,8.70
2018-05-15T04:34:51.397Z,11.70
2018-05-15T04:35:51.294Z,8.50
2018-05-15T04:36:51.204Z,10.40
2018-05-15T04:37:51.102Z,11.60
2018-05-15T04:38:51.009Z,9.00
2018-05-15T04:39:50.919Z,8.80
2018-05-15T04:40:50.816Z,8.00
2018-05-15T04:41:50.725Z,11.70
2018-05-15T04:42:50.634Z,10.50
2018-05-15T04:43:50.761Z,13.10
2018-05-15T04:44:50.439Z,10.80
2018-05-15T04:45:50.349Z,11.90
2018-05-15T04:46:50.257Z,10.90
2018-05-15T04:47:50.156Z,10.10
2018-05-15T04:48:50.066Z,9.60
2018-05-15T04:49:49.972Z,11.20
2018-05-15T04:50:49.882Z,9.40
2018-05-15T04:51:49.791Z,10.90
2018-05-15T04:52:49.688Z,10.50
2018-05-15T04:53:49.601Z,9.60
2018-05-15T04:54:49.506Z,11.70
2018-05-15T04:55:49.462Z,13.50
2018-05-15T04:56:49.313Z,9.20
2018-05-15T04:57:49.221Z,10.60
2018-05-15T04:58:49.131Z,11.40
2018-05-15T04:59:49.039Z,10.80
2018-05-15T05:00:48.950Z,15.30
2018-05-15T05:01:48.859Z,11.70
2018-05-15T05:02:48.769Z,12.00
2018-05-15T05:03:48.677Z,10.80
2018-05-15T05:04:48.591Z,10.10
2018-05-15T05:05:48.483Z,12.10
2018-05-15T05:06:48.393Z,9.90
2018-05-15T05:07:48.305Z,12.40
2018-05-15T05:08:48.223Z,12.90
2018-05-15T05:09:48.120Z,11.40
2018-05-15T05:10:48.029Z,12.10
2018-05-15T05:11:48.044Z,16.30
2018-05-15T05:12:47.847Z,12.90
2018-05-15T05:13:47.757Z,11.20
2018-05-15T05:14:47.664Z,12.50
2018-05-15T05:15:47.576Z,14.30
2018-05-15T05:16:47.484Z,11.80
2018-05-15T05:17:47.393Z,11.40
2018-05-15T05:18:47.302Z,10.00
2018-05-15T05:19:47.215Z,10.80
2018-05-15T05:20:47.120Z,9.80
2018-05-15T05:21:47.031Z,13.10
2018-05-15T05:22:46.942Z,10.10
2018-05-15T05:23:46.849Z,11.00
2018-05-15T05:24:46.757Z,10.50
2018-05-15T05:25:46.667Z,12.50
2018-05-15T05:26:46.575Z,11.90
2018-05-15T05:27:46.486Z,9.90
2018-05-15T05:28:46.394Z,14.90
2018-05-15T05:29:46.304Z,14.50
2018-05-15T05:30:46.225Z,10.40
2018-05-15T05:31:46.133Z,15.20
2018-05-15T05:32:46.047Z,12.20
2018-05-15T05:33:45.952Z,18.20
2018-05-15T05:34:45.862Z,13.50
2018-05-15T05:35:45.771Z,10.00
2018-05-15T05:36:45.680Z,15.60
2018-05-15T05:37:45.589Z,14.10
2018-05-15T05:38:45.499Z,13.40
2018-05-15T05:39:45.408Z,15.40
2018-05-15T05:40:45.318Z,10.80
2018-05-15T05:41:45.239Z,9.70
2018-05-15T05:42:45.149Z,11.90
2018-05-15T05:43:45.062Z,11.60
2018-05-15T05:44:44.965Z,13.70
2018-05-15T05:45:44.876Z,9.60
2018-05-15T05:46:44.785Z,10.70
2018-05-15T05:47:44.694Z,12.40
2018-05-15T05:48:44.602Z,15.00
2018-05-15T05:49:44.524Z,13.90
2018-05-15T05:50:44.435Z,11.90
2018-05-15T05:51:44.344Z,14.10
2018-05-15T05:52:44.256Z,15.50
2018-05-15T05:53:44.161Z,14.50
2018-05-15T05:54:44.070Z,11.30
2018-05-15T05:55:43.981Z,13.60
2018-05-15T05:56:43.901Z,11.50
2018-05-15T05:57:43.810Z,12.20
2018-05-15T05:58:43.719Z,11.10
2018-05-15T05:59:43.629Z,11.30
2018-05-15T06:00:43.537Z,13.70
2018-05-15T06:01:43.459Z,12.10
2018-05-15T06:02:43.369Z,14.50
2018-05-15T06:03:43.277Z,14.70
2018-05-15T06:04:43.187Z,20.20
2018-05-15T06:05:43.096Z,21.00
2018-05-15T06:06:43.019Z,14.70
2018-05-15T06:07:42.932Z,13.40
2018-05-15T06:08:42.836Z,16.30
2018-05-15T06:09:42.747Z,13.20
2018-05-15T06:10:42.662Z,14.60
2018-05-15T06:11:42.580Z,10.90
2018-05-15T06:12:42.486Z,15.20
2018-05-15T06:13:42.397Z,13.90
2018-05-15T06:14:42.316Z,12.10
2018-05-15T06:15:42.226Z,12.70
2018-05-15T06:16:42.135Z,17.10
2018-05-15T06:17:42.046Z,15.80
2018-05-15T06:18:41.967Z,10.70
2018-05-15T06:19:41.874Z,14.30
2018-05-15T06:20:41.804Z,17.40
2018-05-15T06:21:41.706Z,14.90
2018-05-15T06:22:41.615Z,15.60
2018-05-15T06:23:41.536Z,15.60
2018-05-15T06:24:41.447Z,18.70
2018-05-15T06:25:41.378Z,15.10
2018-05-15T06:26:41.277Z,13.60
2018-05-15T06:27:41.187Z,15.10
2018-05-15T06:28:41.097Z,16.40
2018-05-15T06:29:41.016Z,18.60
2018-05-15T06:30:40.929Z,18.10
2018-05-15T06:31:40.848Z,16.90
2018-05-15T06:32:40.758Z,13.20
2018-05-15T06:33:40.680Z,13.20
2018-05-15T06:34:40.589Z,11.00
2018-05-15T06:35:40.499Z,10.60
2018-05-15T06:36:40.421Z,12.80
2018-05-15T06:37:40.329Z,13.90
2018-05-15T06:38:40.250Z,18.10
2018-05-15T06:39:40.159Z,11.80
2018-05-15T06:40:40.083Z,12.90
2018-05-15T06:41:39.990Z,14.70
2018-05-15T06:42:39.932Z,14.40
2018-05-15T06:43:39.825Z,15.00
2018-05-15T06:44:39.816Z,15.60
2018-05-15T06:45:39.656Z,13.70
2018-05-15T06:46:39.562Z,15.30
2018-05-15T06:47:39.486Z,14.20
2018-05-15T06:48:39.392Z,13.60
2018-05-15T06:49:39.317Z,17.10
2018-05-15T06:50:39.224Z,14.80
2018-05-15T06:51:39.144Z,16.70
2018-05-15T06:52:39.054Z,10.80
2018-05-15T06:53:38.978Z,14.40
2018-05-15T06:54:38.884Z,16.20
2018-05-15T06:55:38.807Z,14.70
2018-05-15T06:56:38.716Z,17.40
2018-05-15T06:57:38.638Z,11.20
2018-05-15T06:58:38.547Z,17.90
2018-05-15T06:59:38.468Z,12.70
2018-05-15T07:00:38.381Z,19.40
2018-05-15T07:01:38.304Z,18.00
2018-05-15T07:02:38.208Z,15.00
2018-05-15T07:03:38.129Z,14.20
2018-05-15T07:04:38.039Z,15.90
2018-05-15T07:05:37.962Z,15.70
2018-05-15T07:06:37.870Z,13.10
2018-05-15T07:07:37.867Z,22.80
2018-05-15T07:08:37.701Z,15.00
2018-05-15T07:09:37.623Z,14.90
2018-05-15T07:10:37.532Z,18.20
2018-05-15T07:11:37.453Z,14.90
2018-05-15T07:12:37.362Z,13.10
2018-05-15T07:13:37.275Z,19.70
2018-05-15T07:14:37.193Z,11.90
2018-05-15T07:15:37.104Z,11.20
2018-05-15T07:16:37.025Z,17.20
2018-05-15T07:17:36.934Z,18.40
2018-05-15T07:18:36.855Z,11.70
2018-05-15T07:19:36.810Z,13.10
2018-05-15T07:20:36.674Z,10.70
2018-05-15T07:21:36.645Z,13.20
2018-05-15T07:22:36.504Z,18.40
2018-05-15T07:23:36.427Z,14.90
2018-05-15T07:24:36.335Z,14.70
2018-05-15T07:25:36.257Z,11.80
2018-05-15T07:26:36.167Z,16.00
2018-05-15T07:27:36.076Z,13.60
2018-05-15T07:28:35.997Z,14.00
2018-05-15T07:29:35.907Z,18.60
2018-05-15T07:30:35.833Z,16.70
2018-05-15T07:31:35.736Z,12.20
2018-05-15T07:32:35.659Z,16.80
2018-05-15T07:33:35.568Z,12.70
2018-05-15T07:34:35.478Z,12.40
2018-05-15T07:35:35.397Z,11.50
2018-05-15T07:36:35.311Z,12.30
2018-05-15T07:37:35.230Z,15.20
2018-05-15T07:38:35.138Z,16.50
2018-05-15T07:39:35.060Z,11.80
2018-05-15T07:40:34.981Z,11.60
2018-05-15T07:41:34.892Z,14.60
2018-05-15T07:42:34.800Z,12.70
2018-05-15T07:43:34.722Z,12.60
2018-05-15T07:44:34.633Z,13.70
2018-05-15T07:45:34.553Z,17.60
2018-05-15T07:46:34.462Z,25.90
2018-05-15T07:47:34.390Z,14.50
2018-05-15T07:48:34.293Z,23.40
2018-05-15T07:49:34.215Z,15.90
2018-05-15T07:50:34.127Z,15.90
2018-05-15T07:51:34.040Z,16.20
2018-05-15T07:52:33.956Z,14.40
2018-05-15T07:53:33.880Z,13.90
2018-05-15T07:54:33.785Z,15.00
2018-05-15T07:55:33.695Z,13.20
2018-05-15T07:56:33.605Z,18.50
2018-05-15T07:57:33.526Z,21.90
2018-05-15T07:58:33.436Z,14.70
2018-05-15T07:59:33.347Z,18.60
2018-05-15T08:00:33.279Z,11.60
2018-05-15T08:01:33.181Z,13.90
2018-05-15T08:02:33.085Z,15.20
2018-05-15T08:03:33.007Z,12.10
2018-05-15T08:04:32.991Z,12.60
2018-05-15T08:05:32.824Z,13.90
2018-05-15T08:06:32.746Z,11.50
2018-05-15T08:07:32.656Z,11.40
2018-05-15T08:08:32.566Z,9.60
2018-05-15T08:09:32.474Z,9.60
2018-05-15T08:10:32.387Z,12.20
2018-05-15T08:11:32.304Z,14.60
2018-05-15T08:12:32.214Z,13.90
2018-05-15T08:13:32.122Z,16.60
2018-05-15T08:14:32.033Z,13.80
2018-05-15T08:15:31.954Z,12.50
2018-05-15T08:16:31.862Z,10.30
2018-05-15T08:17:31.773Z,16.10
2018-05-15T08:18:31.681Z,14.20
2018-05-15T08:19:31.592Z,17.00
2018-05-15T08:20:31.500Z,15.60
2018-05-15T08:21:31.409Z,12.50
2018-05-15T08:22:31.394Z,13.10
2018-05-15T08:23:31.239Z,12.30
2018-05-15T08:24:31.150Z,12.80
2018-05-15T08:25:31.058Z,13.00
2018-05-15T08:26:30.971Z,13.70
2018-05-15T08:27:30.881Z,14.20
2018-05-15T08:28:30.786Z,9.90
2018-05-15T08:29:30.695Z,9.00
2018-05-15T08:30:30.605Z,15.00
2018-05-15T08:31:30.526Z,9.30
2018-05-15T08:32:30.434Z,9.80
2018-05-15T08:33:30.345Z,15.10
2018-05-15T08:34:30.253Z,10.10
2018-05-15T08:35:30.163Z,8.00
2018-05-15T08:36:30.071Z,12.20
2018-05-15T08:37:30.087Z,11.10
2018-05-15T08:38:29.890Z,9.20
2018-05-15T08:39:29.800Z,8.80
2018-05-15T08:40:29.708Z,11.30
2018-05-15T08:41:29.618Z,10.20
2018-05-15T08:42:29.526Z,11.10
2018-05-15T08:43:29.437Z,10.10
2018-05-15T08:44:29.347Z,9.50
2018-05-15T08:45:29.370Z,9.50
2018-05-15T08:46:29.163Z,10.80
2018-05-15T08:47:29.072Z,8.00
2018-05-15T08:48:28.997Z,9.50
2018-05-15T08:49:28.902Z,11.80
2018-05-15T08:50:28.813Z,15.80
2018-05-15T08:51:28.779Z,11.90
2018-05-15T08:52:28.632Z,10.00
2018-05-15T08:53:28.539Z,12.60
2018-05-15T08:54:28.449Z,8.60
2018-05-15T08:55:28.372Z,13.40
2018-05-15T08:56:28.282Z,10.30
2018-05-15T08:57:28.189Z,10.40
2018-05-15T08:58:28.111Z,8.80
2018-05-15T08:59:28.020Z,9.50
2018-05-15T09:00:27.930Z,13.30
2018-05-15T09:01:27.851Z,11.70
2018-05-15T09:02:27.759Z,10.90
2018-05-15T09:03:27.681Z,7.50
2018-05-15T09:04:27.592Z,10.90
2018-05-15T09:05:27.512Z,7.60
2018-05-15T09:06:27.423Z,13.80
2018-05-15T09:07:27.343Z,11.10
2018-05-15T09:08:27.256Z,8.20
2018-05-15T09:09:27.175Z,11.80
2018-05-15T09:10:27.101Z,13.80
2018-05-15T09:11:27.006Z,10.10
2018-05-15T09:12:26.928Z,8.80
2018-05-15T09:13:26.848Z,10.30
2018-05-15T09:14:26.760Z,11.60
2018-05-15T09:15:26.683Z,11.50
2018-05-15T09:16:26.602Z,11.00
2018-05-15T09:17:26.510Z,9.50
2018-05-15T09:18:26.445Z,12.70
2018-05-15T09:19:26.357Z,11.00
2018-05-15T09:20:26.275Z,9.90
2018-05-15T09:21:26.185Z,7.60
2018-05-15T09:22:26.107Z,9.80
2018-05-15T09:23:26.028Z,8.90
2018-05-15T09:24:25.949Z,7.90
2018-05-15T09:25:25.859Z,9.80
2018-05-15T09:26:25.780Z,10.00
2018-05-15T09:27:25.701Z,9.60
2018-05-15T09:28:25.623Z,9.70
2018-05-15T09:29:25.673Z,11.30
2018-05-15T09:30:25.455Z,10.40
2018-05-15T09:31:25.377Z,11.90
2018-05-15T09:32:25.298Z,8.40
2018-05-15T09:33:25.221Z,6.60
2018-05-15T09:34:25.129Z,9.40
2018-05-15T09:35:25.050Z,9.20
2018-05-15T09:36:25.038Z,7.10
2018-05-15T09:37:24.881Z,9.40
2018-05-15T09:38:24.800Z,9.20
2018-05-15T09:39:24.726Z,11.40
2018-05-15T09:40:24.635Z,13.50
2018-05-15T09:41:24.555Z,8.80
2018-05-15T09:42:24.478Z,9.70
2018-05-15T09:43:24.387Z,9.20
2018-05-15T09:44:24.311Z,9.80
2018-05-15T09:45:24.217Z,8.90
2018-05-15T09:46:24.138Z,7.80
2018-05-15T09:47:24.049Z,8.40
2018-05-15T09:48:23.971Z,9.50
2018-05-15T09:49:23.879Z,7.90
2018-05-15T09:50:23.804Z,7.70
2018-05-15T09:51:23.710Z,7.80
2018-05-15T09:52:23.653Z,13.00
2018-05-15T09:53:23.541Z,12.40
2018-05-15T09:54:23.462Z,8.00
2018-05-15T09:55:23.372Z,11.80
2018-05-15T09:56:23.296Z,8.70
2018-05-15T09:57:23.219Z,10.80
2018-05-15T09:58:23.124Z,6.80
2018-05-15T09:59:23.034Z,11.00
2018-05-15T10:00:22.956Z,10.00
2018-05-15T10:01:22.866Z,8.00
2018-05-15T10:02:22.786Z,5.80
2018-05-15T10:03:22.695Z,9.20
2018-05-15T10:04:22.607Z,10.20
2018-05-15T10:05:22.526Z,8.60
2018-05-15T10:06:22.448Z,8.30
2018-05-15T10:07:22.358Z,9.60
2018-05-15T10:08:22.266Z,7.50
2018-05-15T10:09:22.189Z,12.40
2018-05-15T10:10:22.098Z,7.10
2018-05-15T10:11:22.020Z,6.90
2018-05-15T10:12:21.927Z,10.80
2018-05-15T10:13:21.837Z,8.20
2018-05-15T10:14:21.760Z,8.30
2018-05-15T10:15:21.669Z,15.90
2018-05-15T10:16:21.579Z,10.70
2018-05-15T10:17:21.500Z,8.80
2018-05-15T10:18:21.409Z,10.10
2018-05-15T10:19:21.329Z,11.60
2018-05-15T10:20:21.242Z,9.50
2018-05-15T10:21:21.149Z,9.30
2018-05-15T10:22:21.070Z,11.60
2018-05-15T10:23:20.979Z,12.80
2018-05-15T10:24:20.902Z,10.30
2018-05-15T10:25:20.812Z,8.00
2018-05-15T10:26:20.732Z,5.60
2018-05-15T10:27:20.641Z,6.90
2018-05-15T10:28:20.550Z,6.60
2018-05-15T10:29:20.471Z,10.50
2018-05-15T10:30:20.381Z,8.90
2018-05-15T10:31:20.303Z,7.70
2018-05-15T10:32:20.237Z,9.20
2018-05-15T10:33:20.127Z,10.10
2018-05-15T10:34:20.051Z,6.00
2018-05-15T10:35:19.954Z,9.30
2018-05-15T10:36:19.862Z,9.80
2018-05-15T10:37:19.796Z,7.70
2018-05-15T10:38:19.692Z,5.60
2018-05-15T10:39:19.614Z,6.70
2018-05-15T10:40:19.523Z,12.70
2018-05-15T10:41:19.437Z,9.40
2018-05-15T10:42:19.354Z,13.90
2018-05-15T10:43:19.264Z,7.50
2018-05-15T10:44:19.185Z,10.40
2018-05-15T10:45:19.101Z,10.10
2018-05-15T10:46:19.019Z,7.90
2018-05-15T10:47:18.928Z,4.90
2018-05-15T10:48:18.834Z,8.40
2018-05-15T10:49:18.755Z,7.30
2018-05-15T10:50:18.665Z,4.80
2018-05-15T10:51:18.587Z,6.80
2018-05-15T10:52:18.496Z,8.10
2018-05-15T10:53:18.417Z,5.80
2018-05-15T10:54:18.326Z,5.60
2018-05-15T10:55:18.249Z,4.60
2018-05-15T10:56:18.157Z,5.50
2018-05-15T10:57:18.078Z,4.80
2018-05-15T10:58:17.989Z,5.10
2018-05-15T10:59:17.899Z,6.60
2018-05-15T11:00:17.831Z,10.30
2018-05-15T11:01:17.729Z,7.30
2018-05-15T11:02:17.650Z,8.00
2018-05-15T11:03:17.559Z,4.20
2018-05-15T11:04:17.469Z,7.40
2018-05-15T11:05:17.391Z,6.60
2018-05-15T11:06:17.358Z,7.40
2018-05-15T11:07:17.210Z,9.50
2018-05-15T11:08:17.130Z,5.50
2018-05-15T11:09:17.039Z,4.90
2018-05-15T11:10:16.949Z,6.90
2018-05-15T11:11:16.873Z,6.10
2018-05-15T11:12:16.778Z,8.80
2018-05-15T11:13:16.689Z,7.90
2018-05-15T11:14:16.610Z,7.60
2018-05-15T11:15:16.518Z,8.40
2018-05-15T11:16:16.432Z,10.10
2018-05-15T11:17:16.339Z,7.40
2018-05-15T11:18:16.259Z,7.70
2018-05-15T11:19:16.169Z,10.40
2018-05-15T11:20:16.081Z,10.40
2018-05-15T11:21:15.999Z,7.80
2018-05-15T11:22:15.909Z,9.50
2018-05-15T11:23:15.817Z,7.80
2018-05-15T11:24:15.728Z,7.80
2018-05-15T11:25:15.649Z,7.00
2018-05-15T11:26:15.557Z,5.60
2018-05-15T11:27:15.467Z,11.40
2018-05-15T11:28:15.377Z,8.50
2018-05-15T11:29:15.297Z,8.90
2018-05-15T11:30:15.211Z,8.10
2018-05-15T11:31:15.116Z,12.00
2018-05-15T11:32:15.028Z,6.60
2018-05-15T11:33:14.947Z,7.20
2018-05-15T11:34:14.857Z,7.80
2018-05-15T11:35:14.766Z,6.50
2018-05-15T11:36:14.679Z,12.30
2018-05-15T11:37:14.597Z,9.90
2018-05-15T11:38:14.506Z,8.00
2018-05-15T11:39:14.414Z,7.60
2018-05-15T11:40:14.335Z,6.40
2018-05-15T11:41:14.246Z,9.70
2018-05-15T11:42:14.156Z,7.80
2018-05-15T11:43:14.064Z,6.90
2018-05-15T11:44:13.986Z,8.00
2018-05-15T11:45:13.894Z,6.80
2018-05-15T11:46:13.804Z,10.20
2018-05-15T11:47:13.734Z,6.30
2018-05-15T11:48:14.141Z,8.10
2018-05-15T11:49:14.104Z,7.80
2018-05-15T11:50:14.181Z,7.70
2018-05-15T11:51:14.195Z,8.40
2018-05-15T11:52:14.099Z,7.60
2018-05-15T11:53:13.744Z,9.50
2018-05-15T11:54:13.103Z,7.20
2018-05-15T11:55:13.027Z,9.40
2018-05-15T11:56:12.932Z,8.80
2018-05-15T11:57:12.843Z,7.60
2018-05-15T11:58:12.812Z,10.40
2018-05-15T11:59:12.672Z,7.20
2018-05-15T12:00:12.669Z,10.40
2018-05-15T12:01:12.505Z,15.90
2018-05-15T12:02:12.413Z,9.10
2018-05-15T12:03:12.323Z,10.50
2018-05-15T12:04:12.245Z,10.50
2018-05-15T12:05:12.152Z,13.70
2018-05-15T12:06:12.063Z,7.50
2018-05-15T12:07:11.984Z,10.10
2018-05-15T12:08:12.079Z,10.40
2018-05-15T12:09:11.804Z,7.70
2018-05-15T12:10:11.727Z,8.90
2018-05-15T12:11:11.634Z,8.10
2018-05-15T12:12:11.544Z,10.90
2018-05-15T12:13:11.454Z,9.50
2018-05-15T12:14:11.387Z,8.20
2018-05-15T12:15:11.336Z,10.10
2018-05-15T12:16:11.212Z,8.60
2018-05-15T12:17:11.115Z,9.30
2018-05-15T12:18:11.024Z,6.20
2018-05-15T12:19:10.946Z,6.60
2018-05-15T12:20:10.854Z,6.60
2018-05-15T12:21:10.896Z,10.60
2018-05-15T12:22:10.685Z,9.40
2018-05-15T12:23:10.593Z,7.30
2018-05-15T12:24:10.505Z,7.40
2018-05-15T12:25:10.414Z,9.80
2018-05-15T12:26:10.334Z,9.50
2018-05-15T12:27:10.244Z,6.50
2018-05-15T12:28:10.197Z,9.20
2018-05-15T12:29:10.078Z,8.40
2018-05-15T12:30:09.984Z,7.80
2018-05-15T12:31:09.892Z,7.00
2018-05-15T12:32:09.803Z,8.20
2018-05-15T12:33:09.724Z,6.70
2018-05-15T12:34:09.632Z,5.20
2018-05-15T12:35:09.543Z,6.80
2018-05-15T12:36:09.464Z,6.00
2018-05-15T12:37:09.372Z,5.10
2018-05-15T12:38:09.282Z,5.30
2018-05-15T12:39:09.192Z,6.90
2018-05-15T12:40:09.117Z,5.00
2018-05-15T12:41:09.071Z,5.80
2018-05-15T12:42:09.053Z,8.30
2018-05-15T12:43:08.841Z,6.10
2018-05-15T12:44:08.765Z,7.70
2018-05-15T12:45:08.670Z,5.50
2018-05-15T12:46:08.580Z,5.90
2018-05-15T12:47:08.491Z,6.80
2018-05-15T12:48:08.506Z,8.80
2018-05-15T12:49:08.321Z,6.70
2018-05-15T12:50:08.229Z,4.60
2018-05-15T12:51:08.150Z,4.80
2018-05-15T12:52:08.061Z,8.30
2018-05-15T12:53:07.969Z,5.80
2018-05-15T12:54:07.900Z,7.00
2018-05-15T12:55:07.790Z,6.00
2018-05-15T12:56:07.709Z,7.30
2018-05-15T12:57:07.620Z,5.00
2018-05-15T12:58:07.527Z,9.40
2018-05-15T12:59:07.437Z,6.70
2018-05-15T13:00:07.347Z,6.10
2018-05-15T13:01:07.267Z,6.20
2018-05-15T13:02:07.178Z,6.50
2018-05-15T13:03:07.086Z,10.50
2018-05-15T13:04:06.996Z,7.30